Kawaguchi, Japan
Current Conditions -  °F | °C
As of 3:30 AM on Tuesday 23 Dec 2014 (Local Time) from RJTT Reporting Station
Few Clouds Few Clouds  
Wind Chill: 38°   Ceiling: Unl
Heat Index: 41°   Visibility: 6mi
Dew Point: 23°   Wind: 5mph
Humidity: 49%   Direction: 270°W
Pressure: 29.94"   Gusts: NA
Location:  35.81°N, 139.73°E
Report Text: RJTT 221830Z 27004KT 250V320 9999 FEW060 05/M05 Q1014 NOSIG
Loading
Personal Weather Stations






























Interactive Weather Map New forecast layout! Learn more

10-Day Weather Forecast

Advertisements
Track Severe Weather on mobile